Time;durP1;ratioP1;P1;durP2;ratioP2;P2;SDS_P1;SDS_P2;PMS_P1;PMS_P2;Temp;Humidity;BMP_temperature;BMP_pressure;BME280_temperature;BME280_humidity;BME280_pressure;Samples;Min_cycle;Max_cycle;Signal;HPM_P1;HPM_P2
2022/07/27 00:01:15;;;;;;;4.53;1.40;;;19.00;59.30;;;21.75;45.08;101734.22;5109301;28;20533;-63
2022/07/27 00:03:44;;;;;;;2.80;1.30;;;19.00;59.80;;;21.72;45.59;101730.13;5114913;28;20218;-62
2022/07/27 00:06:12;;;;;;;2.53;1.20;;;18.90;59.10;;;21.67;45.58;101729.16;5114280;28;20192;-62
2022/07/27 00:08:40;;;;;;;3.87;1.13;;;18.90;59.00;;;21.63;45.63;101736.00;5114296;28;20215;-62
2022/07/27 00:11:09;;;;;;;3.67;1.40;;;18.90;59.00;;;21.58;45.52;101734.78;5099161;28;20196;-59
2022/07/27 00:13:36;;;;;;;3.40;1.60;;;18.80;59.20;;;21.57;45.17;101737.72;5094010;28;20271;-61
2022/07/27 00:16:04;;;;;;;4.83;1.30;;;18.80;59.40;;;21.54;45.31;101733.63;5094033;28;20189;-63
2022/07/27 00:18:35;;;;;;;4.77;0.87;;;18.80;59.50;;;21.51;45.55;101734.06;5093771;28;20191;-62
2022/07/27 00:21:03;;;;;;;3.83;1.30;;;18.70;59.40;;;21.48;45.39;101729.16;5106737;28;20206;-61
2022/07/27 00:23:30;;;;;;;6.70;1.50;;;18.70;59.50;;;21.43;45.51;101736.22;5114012;28;20195;-62
2022/07/27 00:25:57;;;;;;;3.43;1.20;;;18.70;59.50;;;21.38;45.39;101733.38;5114067;28;20195;-61
2022/07/27 00:28:25;;;;;;;3.57;1.20;;;18.60;59.50;;;21.34;45.99;101733.00;5113741;28;20211;-61
2022/07/27 00:30:52;;;;;;;3.20;1.40;;;18.60;59.60;;;21.32;46.21;101729.72;5101553;28;20258;-62
2022/07/27 00:33:19;;;;;;;2.50;1.30;;;18.60;60.00;;;21.31;46.34;101736.13;5093290;28;20180;-61
2022/07/27 00:35:48;;;;;;;2.80;1.20;;;18.50;60.00;;;21.31;46.45;101732.63;5093454;28;20189;-61
2022/07/27 00:38:15;;;;;;;2.57;1.07;;;18.50;60.20;;;21.31;46.15;101733.44;5092440;28;20187;-62
2022/07/27 00:40:43;;;;;;;1.77;1.20;;;18.50;60.30;;;21.30;46.63;101734.47;5094460;28;20207;-63
2022/07/27 00:43:11;;;;;;;3.53;1.37;;;18.50;60.50;;;21.29;46.37;101734.69;5093277;28;20370;-62
2022/07/27 00:45:39;;;;;;;3.50;1.47;;;18.50;60.50;;;21.28;46.67;101736.56;5093674;28;20679;-62
2022/07/27 00:48:06;;;;;;;3.40;1.30;;;18.50;61.40;;;21.26;46.27;101732.44;5093382;28;20219;-62
2022/07/27 00:50:34;;;;;;;3.50;1.10;;;18.50;60.60;;;21.23;46.55;101731.03;5099177;28;20184;-62
2022/07/27 00:53:03;;;;;;;2.07;1.10;;;18.40;60.50;;;21.22;46.82;101732.09;5113908;28;20621;-62
2022/07/27 00:55:32;;;;;;;2.83;1.30;;;18.40;60.60;;;21.20;46.53;101736.03;5113866;28;20191;-62
2022/07/27 00:58:01;;;;;;;3.23;1.13;;;18.40;60.60;;;21.19;46.23;101739.72;5113637;28;20188;-61
2022/07/27 01:00:28;;;;;;;2.70;1.20;;;18.40;60.70;;;21.17;46.60;101731.09;5108154;28;20193;-59
2022/07/27 01:02:55;;;;;;;3.53;1.13;;;18.40;60.90;;;21.14;46.88;101737.72;5093453;28;20216;-60
2022/07/27 01:05:25;;;;;;;2.03;1.30;;;18.40;60.80;;;21.13;46.72;101735.25;5093303;28;20219;-59
2022/07/27 01:08:06;;;;;;;3.20;1.17;;;18.30;60.90;;;21.08;46.96;101737.78;5093315;28;20640;-61
2022/07/27 01:10:35;;;;;;;4.03;1.33;;;18.30;61.00;;;21.04;46.48;101736.56;5098149;28;20203;-61
2022/07/27 01:13:02;;;;;;;2.77;1.40;;;18.30;61.00;;;21.01;46.51;101735.13;5113448;28;20302;-61
2022/07/27 01:15:30;;;;;;;2.57;1.23;;;18.20;61.10;;;20.98;46.92;101740.09;5113464;28;20559;-61
2022/07/27 01:18:09;;;;;;;6.30;1.67;;;18.20;61.30;;;20.96;46.59;101734.97;5116426;28;20241;-61
2022/07/27 01:20:38;;;;;;;4.90;1.37;;;18.20;61.50;;;20.93;47.03;101738.06;5110906;28;20185;-60
2022/07/27 01:23:06;;;;;;;3.60;1.53;;;18.20;61.60;;;20.91;47.02;101737.47;5096766;28;20211;-61
2022/07/27 01:25:34;;;;;;;2.73;1.27;;;18.20;61.90;;;20.87;47.45;101730.91;5096906;28;20537;-60
2022/07/27 01:28:01;;;;;;;6.90;1.50;;;18.10;61.80;;;20.84;47.33;101732.16;5096822;28;20601;-60
2022/07/27 01:30:32;;;;;;;3.87;1.40;;;18.10;62.00;;;20.82;47.74;101728.06;5100640;28;20191;-61
2022/07/27 01:33:01;;;;;;;2.93;1.30;;;18.10;62.00;;;20.79;47.40;101731.16;5117199;28;20210;-61
2022/07/27 01:35:29;;;;;;;4.20;1.30;;;18.10;62.10;;;20.79;47.49;101728.50;5117154;28;20184;-60
2022/07/27 01:37:57;;;;;;;2.00;1.10;;;18.00;62.40;;;20.76;47.72;101723.56;5116851;28;20195;-59
2022/07/27 01:40:26;;;;;;;4.30;1.30;;;18.00;62.40;;;20.74;47.50;101720.28;5112615;28;20189;-62
2022/07/27 01:42:53;;;;;;;2.67;1.50;;;18.00;62.50;;;20.71;48.16;101721.53;5096490;28;20235;-62
2022/07/27 01:45:21;;;;;;;2.23;1.20;;;18.00;62.60;;;20.68;47.63;101727.31;5096523;28;20192;-63
2022/07/27 01:47:49;;;;;;;4.27;1.50;;;18.00;62.70;;;20.65;47.76;101721.59;5096446;28;20188;-63
2022/07/27 01:50:16;;;;;;;3.73;1.63;;;17.90;62.70;;;20.63;47.82;101726.34;5098693;28;20549;-62
2022/07/27 01:52:43;;;;;;;3.67;1.73;;;17.90;62.90;;;20.62;48.04;101722.03;5116766;28;20204;-61
2022/07/27 01:55:11;;;;;;;3.33;1.53;;;17.90;63.30;;;20.61;48.48;101723.88;5116931;28;20195;-61
2022/07/27 01:57:40;;;;;;;4.00;1.50;;;17.80;63.30;;;20.62;48.27;101722.84;5117028;28;20192;-61
2022/07/27 02:00:11;;;;;;;4.93;1.60;;;17.80;63.40;;;20.63;48.21;101723.69;5116244;28;20668;-59
2022/07/27 02:02:39;;;;;;;3.00;1.30;;;17.80;63.50;;;20.64;48.66;101725.31;5116628;28;20215;-62
2022/07/27 02:05:11;;;;;;;2.73;1.33;;;17.90;63.70;;;20.61;48.24;101723.09;5116894;27;20602;-60
2022/07/27 02:07:39;;;;;;;2.77;1.43;;;17.80;63.30;;;20.58;48.17;101726.19;5116879;28;20717;-63
2022/07/27 02:10:09;;;;;;;2.87;1.70;;;17.80;63.30;;;20.57;48.24;101722.69;5115825;28;20739;-63
2022/07/27 02:12:36;;;;;;;3.77;1.57;;;17.80;63.80;;;20.56;48.78;101722.91;5096176;28;20676;-61
2022/07/27 02:15:12;;;;;;;2.93;1.10;;;17.80;63.60;;;20.53;48.94;101726.81;5096271;28;20196;-62
2022/07/27 02:17:43;;;;;;;3.10;1.60;;;17.80;63.80;;;20.55;49.08;101715.91;5096389;28;20195;-62
2022/07/27 02:20:13;;;;;;;2.77;1.20;;;17.80;64.00;;;20.54;48.91;101717.75;5096589;28;20181;-62
2022/07/27 02:22:41;;;;;;;2.77;1.50;;;17.80;63.90;;;20.53;48.68;101713.44;5116167;28;20698;-62
2022/07/27 02:25:11;;;;;;;2.87;1.47;;;17.70;63.90;;;20.51;49.02;101714.69;5116476;28;20188;-62
2022/07/27 02:27:40;;;;;;;3.10;1.60;;;17.70;64.20;;;20.50;48.85;101711.19;5116259;28;20660;-61
2022/07/27 02:30:12;;;;;;;3.43;1.40;;;17.70;64.20;;;20.49;48.98;101711.44;5114807;28;20242;-62
2022/07/27 02:32:41;;;;;;;2.93;2.00;;;17.70;64.30;;;20.49;48.84;101727.47;5095305;28;20208;-62
2022/07/27 02:35:11;;;;;;;4.23;1.53;;;17.70;64.20;;;20.43;49.20;101717.63;5095689;28;20272;-62
2022/07/27 02:37:46;;;;;;;5.27;1.90;;;17.70;64.10;;;20.38;48.78;101717.44;5095810;28;20563;-61
2022/07/27 02:40:15;;;;;;;2.33;1.60;;;17.70;64.20;;;20.36;48.97;101722.19;5096018;28;20601;-61
2022/07/27 02:42:44;;;;;;;3.77;1.60;;;17.60;64.40;;;20.33;49.53;101718.09;5115809;28;20211;-61
2022/07/27 02:45:14;;;;;;;2.87;1.03;;;17.60;64.60;;;20.30;48.94;101715.84;5116088;28;20188;-61
2022/07/27 02:47:42;;;;;;;4.83;1.53;;;17.60;64.60;;;20.30;49.77;101728.41;5116533;28;20225;-62
2022/07/27 02:50:10;;;;;;;2.73;1.30;;;17.60;64.90;;;20.26;49.50;101725.31;5115513;28;20214;-61
2022/07/27 02:52:38;;;;;;;4.73;1.60;;;17.50;64.70;;;20.23;49.32;101729.25;5115009;28;20235;-61
2022/07/27 02:55:07;;;;;;;4.07;1.53;;;17.50;65.00;;;20.21;49.43;101728.59;5115681;28;20188;-61
2022/07/27 02:57:36;;;;;;;3.77;1.20;;;17.50;65.00;;;20.18;49.93;101729.03;5115867;28;20648;-62
2022/07/27 03:00:06;;;;;;;5.93;1.40;;;17.50;65.50;;;20.19;50.15;101727.19;5115502;28;20653;-62
2022/07/27 03:02:35;;;;;;;2.70;1.40;;;17.40;65.50;;;20.22;50.37;101721.44;5094924;28;20239;-61
2022/07/27 03:05:03;;;;;;;3.80;1.80;;;17.50;65.90;;;20.27;50.38;101732.31;5094842;28;20189;-62
2022/07/27 03:07:31;;;;;;;2.93;1.43;;;17.50;65.80;;;20.28;49.69;101722.47;5095038;28;20184;-61
2022/07/27 03:09:59;;;;;;;2.90;1.67;;;17.50;65.60;;;20.26;49.63;101728.00;5095339;28;20212;-61
2022/07/27 03:12:26;;;;;;;1.93;1.37;;;17.50;65.20;;;20.22;50.05;101724.94;5112690;28;20211;-61
2022/07/27 03:14:55;;;;;;;3.20;1.67;;;17.50;65.60;;;20.23;50.11;101723.06;5115830;28;20188;-61
2022/07/27 03:17:22;;;;;;;3.17;1.87;;;17.50;65.40;;;20.19;49.83;101730.69;5115482;28;20536;-60
2022/07/27 03:19:51;;;;;;;3.87;1.60;;;17.50;65.20;;;20.14;49.48;101725.16;5115765;28;20195;-61
2022/07/27 03:22:19;;;;;;;4.00;1.43;;;17.40;65.10;;;20.08;49.59;101731.38;5097729;28;20212;-60
2022/07/27 03:24:46;;;;;;;3.30;1.90;;;17.40;65.10;;;20.05;49.60;101726.44;5095185;28;20200;-61
2022/07/27 03:27:13;;;;;;;4.87;1.60;;;17.30;65.00;;;20.02;50.17;101726.84;5095050;28;20187;-59
2022/07/27 03:29:41;;;;;;;5.37;1.70;;;17.30;65.30;;;20.00;49.69;101733.44;5095462;28;20220;-62
2022/07/27 03:32:08;;;;;;;2.97;1.57;;;17.30;65.50;;;19.95;49.83;101731.41;5109809;28;20207;-62
2022/07/27 03:34:36;;;;;;;5.87;1.73;;;17.20;65.40;;;19.94;50.19;101735.13;5115176;28;20192;-62
2022/07/27 03:37:04;;;;;;;4.30;1.90;;;17.20;65.50;;;19.90;50.08;101728.53;5115100;28;20282;-62
2022/07/27 03:39:32;;;;;;;2.47;1.40;;;17.20;65.70;;;19.90;50.13;101739.22;5115110;28;20259;-62
2022/07/27 03:41:59;;;;;;;11.10;2.10;;;17.20;66.10;;;19.90;50.46;101733.88;5099867;28;20219;-62
2022/07/27 03:44:27;;;;;;;4.13;1.70;;;17.20;66.00;;;19.90;50.20;101735.72;5094400;28;20525;-62
2022/07/27 03:46:54;;;;;;;4.60;1.70;;;17.10;65.80;;;19.90;50.39;101739.22;5094093;28;20189;-62
2022/07/27 03:49:21;;;;;;;4.17;1.73;;;17.10;66.20;;;19.91;50.39;101738.22;5094198;28;20220;-62
2022/07/27 03:51:49;;;;;;;3.87;1.47;;;17.20;66.10;;;19.90;50.50;101744.56;5106022;28;20212;-62
2022/07/27 03:54:18;;;;;;;4.73;1.40;;;17.10;66.20;;;19.91;50.46;101730.19;5114273;28;20190;-60
2022/07/27 03:56:46;;;;;;;8.40;1.60;;;17.20;66.50;;;19.94;50.30;101737.78;5114713;28;20180;-62
2022/07/27 03:59:13;;;;;;;5.30;1.80;;;17.20;66.10;;;19.94;50.26;101748.47;5114589;28;20184;-61
2022/07/27 04:01:41;;;;;;;6.23;1.90;;;17.20;65.90;;;19.92;50.13;101750.53;5102519;28;20208;-62
2022/07/27 04:04:09;;;;;;;5.20;1.53;;;17.20;65.90;;;19.93;50.35;101752.19;5094288;28;20192;-62
2022/07/27 04:06:36;;;;;;;5.60;1.67;;;17.20;66.00;;;19.90;49.78;101749.91;5094183;28;20184;-60
2022/07/27 04:09:05;;;;;;;3.83;1.67;;;17.20;65.90;;;19.88;50.05;101751.16;5093779;28;20239;-60
2022/07/27 04:11:36;;;;;;;5.73;2.23;;;17.10;65.80;;;19.85;49.94;101749.72;5103013;28;20257;-62
2022/07/27 04:14:17;;;;;;;3.87;1.73;;;17.10;65.80;;;19.82;50.42;101749.34;5114055;28;20263;-62
2022/07/27 04:16:44;;;;;;;4.60;1.60;;;17.10;66.10;;;19.82;50.51;101750.16;5114022;28;20188;-63
2022/07/27 04:19:12;;;;;;;4.07;1.77;;;17.10;66.40;;;19.83;50.52;101749.13;5113773;28;20249;-61
2022/07/27 04:21:40;;;;;;;4.90;1.67;;;17.10;66.40;;;19.82;50.53;101747.50;5102831;28;20616;-61
2022/07/27 04:24:08;;;;;;;4.10;2.10;;;17.10;66.50;;;19.84;50.66;101745.44;5093876;28;20207;-62
2022/07/27 04:26:37;;;;;;;4.23;2.10;;;17.10;66.70;;;19.85;50.66;101748.94;5093163;28;20199;-61
2022/07/27 04:29:04;;;;;;;3.13;1.93;;;17.10;66.70;;;19.86;50.81;101746.03;5092221;28;20220;-62
2022/07/27 04:31:32;;;;;;;7.17;2.40;;;17.00;66.80;;;19.86;51.00;101746.03;5102155;28;20208;-62
2022/07/27 04:33:59;;;;;;;4.77;2.40;;;17.10;67.20;;;19.87;51.14;101744.97;5113867;28;20196;-61
2022/07/27 04:36:27;;;;;;;3.77;2.43;;;17.10;67.40;;;19.88;51.01;101738.63;5113433;28;20195;-62
2022/07/27 04:38:54;;;;;;;3.17;1.67;;;17.10;67.30;;;19.91;50.84;101738.22;5113743;28;20199;-62
2022/07/27 04:41:21;;;;;;;2.20;2.00;;;17.10;67.60;;;19.97;51.35;101750.72;5105692;28;20214;-62
2022/07/27 04:43:58;;;;;;;5.27;2.30;;;17.20;67.70;;;20.02;50.76;101742.88;5093535;28;20188;-62
2022/07/27 04:46:28;;;;;;;7.17;1.87;;;17.20;67.50;;;20.04;50.91;101742.69;5093222;28;20242;-62
2022/07/27 04:48:56;;;;;;;6.20;1.77;;;17.20;67.30;;;20.03;50.93;101743.72;5093751;28;20271;-62
2022/07/27 04:51:24;;;;;;;3.93;2.17;;;17.20;67.20;;;20.02;50.51;101742.88;5100245;28;20282;-61
2022/07/27 04:53:51;;;;;;;3.27;1.60;;;17.20;67.20;;;20.00;50.64;101742.28;5120089;27;20535;-63
2022/07/27 04:56:25;;;;;;;3.50;2.00;;;17.20;67.00;;;19.99;50.42;101754.00;5120587;27;20270;-62
2022/07/27 04:58:53;;;;;;;3.07;1.80;;;17.20;67.20;;;20.00;50.99;101744.94;5120014;27;20300;-62
2022/07/27 05:01:24;;;;;;;2.47;1.60;;;17.20;67.30;;;20.02;51.09;101747.41;5112858;27;20215;-63
2022/07/27 05:03:51;;;;;;;3.50;2.13;;;17.20;67.40;;;20.06;51.02;101754.78;5099689;28;20637;-62
2022/07/27 05:06:19;;;;;;;2.83;2.30;;;17.30;67.60;;;20.11;51.19;101752.31;5099510;28;20195;-61
2022/07/27 05:08:46;;;;;;;4.63;2.00;;;17.30;67.50;;;20.13;50.77;101752.09;5099572;28;20188;-62
2022/07/27 05:11:14;;;;;;;5.37;2.00;;;17.30;67.40;;;20.18;50.62;101758.44;5104553;28;20227;-61
2022/07/27 05:13:41;;;;;;;4.50;2.00;;;17.30;67.30;;;20.22;50.63;101765.06;5120285;27;20567;-62
2022/07/27 05:16:10;;;;;;;9.17;2.40;;;17.30;67.30;;;20.25;50.76;101764.59;5120162;27;20184;-62
2022/07/27 05:18:39;;;;;;;6.90;2.50;;;17.40;67.30;;;20.29;50.67;101769.53;5120221;27;20305;-61
2022/07/27 05:21:08;;;;;;;5.40;2.47;;;17.40;67.30;;;20.34;50.55;101775.91;5114725;27;20672;-63
2022/07/27 05:23:36;;;;;;;4.47;2.03;;;17.40;67.00;;;20.39;50.10;101780.59;5099517;28;20199;-62
2022/07/27 05:26:03;;;;;;;5.60;2.30;;;17.50;67.00;;;20.45;49.96;101779.75;5099446;28;20557;-62
2022/07/27 05:28:31;;;;;;;5.97;2.20;;;17.50;66.80;;;20.47;50.27;101781.16;5099612;28;20200;-60
2022/07/27 05:30:58;;;;;;;5.30;2.40;;;17.60;66.60;;;20.52;49.92;101775.19;5101967;28;20216;-61
2022/07/27 05:33:26;;;;;;;7.53;2.27;;;17.60;66.50;;;20.56;50.10;101787.91;5120179;27;20656;-62
2022/07/27 05:35:56;;;;;;;7.10;2.53;;;17.60;66.20;;;20.61;49.69;101781.94;5119090;28;20191;-63
2022/07/27 05:38:24;;;;;;;3.87;2.03;;;17.70;66.20;;;20.67;49.31;101794.44;5118556;27;20204;-63
2022/07/27 05:40:52;;;;;;;4.43;1.60;;;17.80;65.80;;;20.72;49.33;101790.09;5117363;27;20176;-61
2022/07/27 05:43:19;;;;;;;4.07;1.90;;;17.80;65.20;;;20.78;48.84;101788.41;5099652;28;20256;-61
2022/07/27 05:45:47;;;;;;;4.67;1.80;;;17.90;65.70;;;20.80;48.45;101795.19;5099388;28;20184;-63
2022/07/27 05:48:14;;;;;;;5.13;1.67;;;17.90;64.30;;;20.83;48.56;101791.25;5099482;28;20642;-62
2022/07/27 05:50:42;;;;;;;5.47;1.70;;;18.00;64.20;;;20.87;48.57;101789.81;5098859;28;20207;-60
2022/07/27 05:53:11;;;;;;;2.57;1.27;;;18.00;63.90;;;20.88;48.36;101791.44;5119133;27;20214;-62
2022/07/27 05:55:39;;;;;;;3.57;1.60;;;18.00;63.70;;;20.87;48.38;101792.47;5118489;28;20249;-62
2022/07/27 05:58:26;;;;;;;3.70;1.60;;;18.00;63.80;;;20.94;47.87;101782.56;5119734;27;20266;-63
2022/07/27 06:00:53;;;;;;;4.60;1.50;;;18.10;63.80;;;20.98;48.24;101789.09;5115913;28;20639;-62
2022/07/27 06:03:21;;;;;;;4.80;1.67;;;18.10;63.70;;;21.06;47.77;101782.69;5096798;28;20184;-62
2022/07/27 06:05:48;;;;;;;5.50;1.53;;;18.10;63.30;;;21.14;47.37;101783.25;5096104;28;20288;-62
2022/07/27 06:08:17;;;;;;;4.87;1.70;;;18.20;63.00;;;21.20;47.20;101794.94;5095815;28;20185;-61
2022/07/27 06:10:45;;;;;;;7.40;1.70;;;18.30;62.50;;;21.21;46.83;101785.84;5095267;28;20541;-63
2022/07/27 06:13:12;;;;;;;2.00;1.57;;;18.30;61.90;;;21.21;46.40;101789.34;5095930;28;20220;-62
2022/07/27 06:15:40;;;;;;;3.80;1.50;;;18.30;61.60;;;21.24;46.60;101796.13;5094442;28;20629;-61
2022/07/27 06:18:13;;;;;;;5.93;1.90;;;18.40;61.50;;;21.26;46.77;101788.69;5095344;28;20184;-60
2022/07/27 06:20:42;;;;;;;3.43;2.13;;;18.40;62.30;;;21.32;46.54;101788.63;5094981;28;20219;-61
2022/07/27 06:23:09;;;;;;;5.97;1.60;;;18.40;61.20;;;21.36;46.08;101786.34;5115096;28;20227;-61
2022/07/27 06:25:39;;;;;;;3.03;1.37;;;18.50;61.20;;;21.42;45.90;101788.97;5115786;28;20227;-61
2022/07/27 06:28:07;;;;;;;2.40;1.67;;;18.50;61.10;;;21.50;46.09;101791.38;5115628;28;20567;-62
2022/07/27 06:30:35;;;;;;;3.03;1.67;;;18.60;60.60;;;21.57;45.87;101800.19;5115118;27;20226;-61
2022/07/27 06:33:03;;;;;;;2.53;1.63;;;18.60;60.30;;;21.64;45.52;101793.91;5096903;28;20549;-62
2022/07/27 06:35:32;;;;;;;3.63;1.63;;;18.70;60.10;;;21.67;45.31;101802.34;5095474;28;20188;-62
2022/07/27 06:38:00;;;;;;;6.33;2.03;;;18.70;59.50;;;21.72;44.85;101804.38;5095905;28;20227;-61
2022/07/27 06:40:28;;;;;;;2.57;1.30;;;18.80;58.60;;;21.75;43.90;101809.28;5096322;28;20185;-62
2022/07/27 06:42:58;;;;;;;5.50;1.80;;;18.80;57.90;;;21.77;43.69;101808.03;5096147;28;20224;-61
2022/07/27 06:45:26;;;;;;;4.30;1.63;;;18.80;57.60;;;21.83;44.14;101800.94;5095028;28;20541;-61
2022/07/27 06:47:54;;;;;;;4.70;1.50;;;18.90;57.80;;;21.91;43.54;101803.38;5096095;28;20189;-63
2022/07/27 06:50:21;;;;;;;7.10;1.73;;;18.90;57.70;;;22.01;43.51;101809.03;5095154;28;20220;-63
2022/07/27 06:52:49;;;;;;;5.83;2.20;;;19.00;57.50;;;22.11;43.33;101809.31;5111059;28;20230;-62
2022/07/27 06:55:16;;;;;;;4.83;2.20;;;19.10;57.60;;;22.19;43.42;101815.22;5115291;28;20188;-61
2022/07/27 06:57:45;;;;;;;3.13;1.50;;;19.20;57.50;;;22.27;42.96;101808.72;5115019;28;20192;-61
2022/07/27 07:00:15;;;;;;;4.03;1.80;;;19.30;57.40;;;22.34;42.24;101817.53;5114752;28;20192;-62
2022/07/27 07:02:56;;;;;;;4.27;1.50;;;19.40;56.20;;;22.40;41.89;101819.28;5114185;28;20216;-61
2022/07/27 07:05:25;;;;;;;2.63;1.63;;;19.40;55.80;;;22.49;41.78;101827.88;5115687;28;20535;-61
2022/07/27 07:07:53;;;;;;;3.00;1.53;;;19.50;55.80;;;22.55;41.56;101819.72;5115061;28;20188;-61
2022/07/27 07:10:22;;;;;;;6.30;1.40;;;19.60;55.40;;;22.59;41.72;101818.22;5114892;28;20257;-64
2022/07/27 07:12:54;;;;;;;3.03;1.30;;;19.60;55.30;;;22.67;41.27;101819.78;5114946;28;20208;-61
2022/07/27 07:15:25;;;;;;;5.47;1.83;;;19.70;55.20;;;22.76;40.77;101830.00;5114624;28;20254;-62
2022/07/27 07:17:53;;;;;;;3.83;1.70;;;19.70;54.70;;;22.87;41.16;101826.50;5115152;28;20183;-62
2022/07/27 07:20:21;;;;;;;3.83;1.40;;;19.80;54.90;;;23.01;40.37;101834.41;5114838;28;20645;-62
2022/07/27 07:22:49;;;;;;;2.83;1.40;;;19.80;54.20;;;23.18;40.20;101838.03;5114433;27;20207;-62
2022/07/27 07:25:16;;;;;;;6.87;1.80;;;19.90;54.30;;;23.34;39.86;101838.19;5072715;28;20197;-61
2022/07/27 07:27:44;;;;;;;5.70;1.53;;;20.10;54.10;;;23.46;39.75;101835.56;5073643;28;20196;-63
2022/07/27 07:30:12;;;;;;;4.93;1.80;;;20.20;54.10;;;23.49;39.85;101845.81;5073716;28;20217;-61
2022/07/27 07:32:41;;;;;;;8.30;1.50;;;20.30;54.10;;;23.45;39.92;101855.41;5100732;27;20225;-61
2022/07/27 07:35:10;;;;;;;5.27;1.80;;;20.30;54.10;;;23.41;40.10;101856.94;5074040;28;20327;-62
2022/07/27 07:37:38;;;;;;;6.07;1.83;;;20.30;54.10;;;23.39;40.70;101851.78;5106881;28;20197;-62
2022/07/27 07:40:09;;;;;;;7.00;2.30;;;20.30;54.40;;;23.38;40.62;101836.72;5073770;28;20185;-62
2022/07/27 07:42:59;;;;;;;5.33;2.10;;;20.30;54.60;;;23.36;40.53;101835.31;5090751;28;20503;-62
2022/07/27 07:45:29;;;;;;;24.47;17.20;;;20.30;54.70;;;23.33;40.56;101827.66;5093948;28;20185;-59
2022/07/27 07:47:58;;;;;;;4.77;2.73;;;20.30;54.70;;;23.38;40.33;101830.50;5094131;28;20189;-61
2022/07/27 07:50:27;;;;;;;6.33;2.00;;;20.30;55.10;;;23.44;40.24;101832.25;5093131;28;20403;-60
2022/07/27 07:52:55;;;;;;;4.17;1.67;;;20.30;53.90;;;23.51;39.80;101835.66;5094170;28;20223;-63
2022/07/27 07:55:25;;;;;;;3.20;1.37;;;20.30;53.40;;;23.58;39.35;101839.09;5093903;28;20195;-61
2022/07/27 07:57:55;;;;;;;7.40;1.60;;;20.40;52.90;;;23.65;38.84;101833.59;5093723;28;20196;-62
2022/07/27 08:00:23;;;;;;;4.63;1.93;;;20.40;52.50;;;23.74;38.67;101843.75;5093424;28;20673;-61
2022/07/27 08:02:54;;;;;;;4.03;1.57;;;20.50;52.60;;;23.89;38.46;101840.59;5108795;28;20239;-63
2022/07/27 08:05:24;;;;;;;4.37;1.43;;;20.50;52.20;;;24.13;38.39;101837.66;5112031;28;20240;-62
2022/07/27 08:07:53;;;;;;;4.10;1.67;;;20.70;52.50;;;24.48;38.07;101836.75;5093614;28;20280;-62
2022/07/27 08:10:22;;;;;;;5.37;2.17;;;20.80;52.60;;;25.03;36.98;101837.78;5110231;28;20223;-63
2022/07/27 08:12:53;;;;;;;3.00;1.40;;;21.10;52.00;;;26.11;36.00;101830.09;5113381;28;20217;-62
2022/07/27 08:15:22;;;;;;;3.67;2.27;;;21.50;52.20;;;27.43;33.71;101843.13;5113776;28;20199;-62
2022/07/27 08:18:03;;;;;;;3.50;1.73;;;22.00;51.30;;;28.77;31.23;101827.00;5113823;28;20188;-62
2022/07/27 08:20:33;;;;;;;4.37;2.00;;;22.80;48.60;;;29.95;30.37;101824.78;5093826;28;20245;-63
2022/07/27 08:23:01;;;;;;;3.20;1.70;;;23.50;48.30;;;31.09;28.19;101837.25;5093023;28;20212;-63
2022/07/27 08:25:29;;;;;;;4.67;1.80;;;24.40;47.00;;;32.05;26.98;101835.22;5093254;28;20189;-64
2022/07/27 08:27:56;;;;;;;4.30;1.60;;;25.20;44.90;;;32.28;26.64;101841.78;5092359;28;20189;-62
2022/07/27 08:30:25;;;;;;;4.10;1.67;;;25.80;42.00;;;32.57;26.20;101833.47;5109220;28;20211;-61
2022/07/27 08:33:02;;;;;;;4.07;1.90;;;26.40;41.20;;;33.42;25.18;101826.63;5113268;28;20607;-61
2022/07/27 08:35:33;;;;;;;5.13;1.90;;;26.90;39.70;;;34.27;23.93;101834.31;5113419;28;20191;-61
2022/07/27 08:38:04;;;;;;;6.07;2.00;;;27.40;37.70;;;34.75;22.52;101842.84;5113443;28;20275;-62
2022/07/27 08:40:32;;;;;;;4.23;1.80;;;27.90;36.00;;;34.80;22.34;101839.97;5094773;28;20192;-63
2022/07/27 08:43:08;;;;;;;4.77;1.63;;;28.20;35.20;;;33.97;22.94;101832.97;5092826;28;20222;-63
2022/07/27 08:45:37;;;;;;;3.23;1.87;;;28.40;34.30;;;33.62;23.67;101835.59;5093055;28;20188;-62
2022/07/27 08:48:05;;;;;;;3.17;1.33;;;28.40;34.50;;;33.58;23.67;101834.59;5092702;28;20633;-64
2022/07/27 08:50:34;;;;;;;3.97;1.70;;;28.40;34.20;;;34.08;23.27;101828.16;5110456;28;20236;-62
2022/07/27 08:53:04;;;;;;;5.47;1.50;;;28.40;34.30;;;34.04;22.32;101843.56;5113244;28;20212;-63
2022/07/27 08:55:35;;;;;;;2.57;1.50;;;28.50;32.90;;;34.20;22.56;101847.59;5113115;28;20274;-62
2022/07/27 08:58:03;;;;;;;6.73;1.87;;;28.60;33.10;;;34.28;22.72;101837.88;5113305;28;20202;-62
2022/07/27 09:00:33;;;;;;;4.90;1.90;;;28.70;33.00;;;33.43;22.72;101844.66;5094799;28;20188;-62
2022/07/27 09:03:01;;;;;;;2.30;1.57;;;28.50;32.60;;;32.34;24.19;101843.31;5092979;28;20283;-61
2022/07/27 09:05:30;;;;;;;4.03;1.60;;;28.20;32.60;;;31.33;24.75;101841.66;5092683;28;20226;-62
2022/07/27 09:08:13;;;;;;;5.03;2.13;;;27.70;33.30;;;30.44;26.60;101849.34;5092381;28;20188;-61
2022/07/27 09:10:41;;;;;;;7.27;2.10;;;27.10;34.60;;;29.80;27.69;101852.81;5091810;28;20212;-60
2022/07/27 09:13:22;;;;;;;5.33;2.13;;;26.60;35.70;;;29.01;28.90;101860.66;5092934;28;20692;-62
2022/07/27 09:15:54;;;;;;;3.80;1.60;;;26.00;38.30;;;28.39;30.46;101863.44;5092898;28;20196;-62
2022/07/27 09:18:41;;;;;;;3.00;1.50;;;25.50;39.40;;;27.73;30.65;101864.97;5093665;28;20246;-63
2022/07/27 09:21:13;;;;;;;4.60;1.77;;;24.90;40.30;;;27.25;31.26;101863.22;5112324;28;20188;-63
2022/07/27 09:23:46;;;;;;;2.10;1.50;;;24.40;40.60;;;26.86;31.54;101867.97;5112776;28;20605;-61
2022/07/27 09:26:18;;;;;;;3.43;1.73;;;24.00;41.10;;;26.60;31.33;101866.03;5112835;28;20271;-61
2022/07/27 09:29:05;;;;;;;4.83;1.90;;;23.60;40.90;;;26.42;31.43;101860.16;5108366;28;20196;-63
2022/07/27 09:31:41;;;;;;;4.17;1.97;;;23.40;42.40;;;26.42;31.54;101858.28;5092370;28;20591;-62
2022/07/27 09:34:10;;;;;;;5.13;2.73;;;23.20;41.90;;;26.39;31.64;101853.38;5092195;28;20188;-61
2022/07/27 09:36:51;;;;;;;5.67;3.60;;;23.10;42.10;;;26.53;31.38;101848.44;5092055;28;20247;-61
2022/07/27 09:39:22;;;;;;;3.77;2.37;;;23.00;41.90;;;27.25;30.37;101857.81;5101720;28;20184;-62
2022/07/27 09:41:54;;;;;;;5.27;3.60;;;23.10;41.90;;;28.77;28.50;101849.50;5116372;28;20208;-62
2022/07/27 09:44:34;;;;;;;5.70;2.40;;;23.40;41.90;;;30.60;27.04;101843.53;5116533;28;20237;-62
2022/07/27 09:47:21;;;;;;;8.50;5.10;;;24.10;40.90;;;32.69;24.29;101834.66;5116609;28;20200;-60
2022/07/27 09:49:49;;;;;;;4.07;2.00;;;25.10;39.70;;;34.08;22.17;101839.09;5105553;28;20649;-62
2022/07/27 09:52:22;;;;;;;5.57;2.07;;;26.00;37.50;;;35.04;21.15;101839.69;5095532;28;20687;-63
2022/07/27 09:54:52;;;;;;;4.27;2.83;;;26.90;35.30;;;36.05;20.06;101842.47;5096120;28;20189;-63
2022/07/27 09:57:19;;;;;;;5.00;2.70;;;27.80;34.60;;;37.06;19.40;101835.47;5094958;28;20254;-63
2022/07/27 09:59:47;;;;;;;2.83;2.07;;;28.60;33.30;;;37.80;18.48;101837.88;5106158;28;20207;-61
2022/07/27 10:02:15;;;;;;;3.37;2.10;;;29.30;31.00;;;38.41;17.37;101841.91;5115968;28;20208;-63
2022/07/27 10:04:43;;;;;;;7.22;2.92;;;29.90;29.70;;;38.36;17.44;101836.59;5116243;28;20262;-62
2022/07/27 10:07:12;;;;;;;3.10;1.73;;;30.40;28.80;;;38.07;17.49;101837.41;5116022;28;20279;-63
2022/07/27 10:09:40;;;;;;;2.70;2.37;;;30.70;28.30;;;37.92;17.47;101840.72;5107215;28;20571;-63
2022/07/27 10:12:10;;;;;;;3.97;2.03;;;30.90;27.80;;;38.12;17.23;101837.22;5094661;28;20760;-61
2022/07/27 10:14:37;;;;;;;4.22;1.77;;;30.90;27.20;;;38.71;17.15;101823.34;5095704;28;20594;-61
2022/07/27 10:17:06;;;;;;;4.95;2.40;;;31.30;27.80;;;38.29;17.05;101834.38;5096184;28;20188;-63
2022/07/27 10:19:43;;;;;;;4.18;1.67;;;31.30;27.00;;;37.52;17.77;101842.16;5103357;28;20217;-62
2022/07/27 10:22:11;;;;;;;5.30;3.33;;;31.30;27.00;;;37.12;17.93;101831.44;5115461;28;20200;-62